sensor_id;sensor_type;location;lat;lon;timestamp;P1;durP1;ratioP1;P2;durP2;ratioP2
64982;SDS011;69426;28.138;-15.436;2023-09-12T00:01:22;10.97;;;2.60;;
64982;SDS011;69426;28.138;-15.436;2023-09-12T00:03:48;5.57;;;2.40;;
64982;SDS011;69426;28.138;-15.436;2023-09-12T00:06:13;4.47;;;2.60;;
64982;SDS011;69426;28.138;-15.436;2023-09-12T00:08:38;3.90;;;2.10;;
64982;SDS011;69426;28.138;-15.436;2023-09-12T00:13:29;4.03;;;2.33;;
64982;SDS011;69426;28.138;-15.436;2023-09-12T00:15:54;2.92;;;1.85;;
64982;SDS011;69426;28.138;-15.436;2023-09-12T00:18:19;7.38;;;2.25;;
64982;SDS011;69426;28.138;-15.436;2023-09-12T00:20:45;5.53;;;2.40;;
64982;SDS011;69426;28.138;-15.436;2023-09-12T00:23:10;5.33;;;2.37;;
64982;SDS011;69426;28.138;-15.436;2023-09-12T00:25:35;4.30;;;2.40;;
64982;SDS011;69426;28.138;-15.436;2023-09-12T00:28:00;5.33;;;2.03;;
64982;SDS011;69426;28.138;-15.436;2023-09-12T00:30:25;4.10;;;2.27;;
64982;SDS011;69426;28.138;-15.436;2023-09-12T00:32:51;4.30;;;2.10;;
64982;SDS011;69426;28.138;-15.436;2023-09-12T00:35:16;4.27;;;2.50;;
64982;SDS011;69426;28.138;-15.436;2023-09-12T00:37:41;6.73;;;2.30;;
64982;SDS011;69426;28.138;-15.436;2023-09-12T00:40:07;7.17;;;2.50;;
64982;SDS011;69426;28.138;-15.436;2023-09-12T00:42:32;6.05;;;2.50;;
64982;SDS011;69426;28.138;-15.436;2023-09-12T00:44:57;5.17;;;2.20;;
64982;SDS011;69426;28.138;-15.436;2023-09-12T00:47:22;5.10;;;2.40;;
64982;SDS011;69426;28.138;-15.436;2023-09-12T00:49:49;5.40;;;2.40;;
64982;SDS011;69426;28.138;-15.436;2023-09-12T00:52:15;4.93;;;2.08;;
64982;SDS011;69426;28.138;-15.436;2023-09-12T00:54:41;5.10;;;2.40;;
64982;SDS011;69426;28.138;-15.436;2023-09-12T00:57:06;5.38;;;2.38;;
64982;SDS011;69426;28.138;-15.436;2023-09-12T00:59:31;4.97;;;2.20;;
64982;SDS011;69426;28.138;-15.436;2023-09-12T01:01:57;4.68;;;2.40;;
64982;SDS011;69426;28.138;-15.436;2023-09-12T01:04:22;3.90;;;1.92;;
64982;SDS011;69426;28.138;-15.436;2023-09-12T01:06:48;4.68;;;2.10;;
64982;SDS011;69426;28.138;-15.436;2023-09-12T01:09:13;3.33;;;2.20;;
64982;SDS011;69426;28.138;-15.436;2023-09-12T01:11:39;5.40;;;2.30;;
64982;SDS011;69426;28.138;-15.436;2023-09-12T01:14:05;3.92;;;2.30;;
64982;SDS011;69426;28.138;-15.436;2023-09-12T01:16:30;5.27;;;2.00;;
64982;SDS011;69426;28.138;-15.436;2023-09-12T01:18:55;4.47;;;2.57;;
64982;SDS011;69426;28.138;-15.436;2023-09-12T01:26:23;4.35;;;2.05;;
64982;SDS011;69426;28.138;-15.436;2023-09-12T01:28:52;5.22;;;2.33;;
64982;SDS011;69426;28.138;-15.436;2023-09-12T01:31:19;3.42;;;2.00;;
64982;SDS011;69426;28.138;-15.436;2023-09-12T01:33:45;5.63;;;2.20;;
64982;SDS011;69426;28.138;-15.436;2023-09-12T01:36:10;6.50;;;2.97;;
64982;SDS011;69426;28.138;-15.436;2023-09-12T01:38:35;3.47;;;1.90;;
64982;SDS011;69426;28.138;-15.436;2023-09-12T01:41:01;4.87;;;2.43;;
64982;SDS011;69426;28.138;-15.436;2023-09-12T01:43:26;4.57;;;2.60;;
64982;SDS011;69426;28.138;-15.436;2023-09-12T01:45:55;6.28;;;2.10;;
64982;SDS011;69426;28.138;-15.436;2023-09-12T01:48:23;6.68;;;2.10;;
64982;SDS011;69426;28.138;-15.436;2023-09-12T01:50:49;2.88;;;2.00;;
64982;SDS011;69426;28.138;-15.436;2023-09-12T01:53:15;3.92;;;2.15;;
64982;SDS011;69426;28.138;-15.436;2023-09-12T01:55:43;4.40;;;2.60;;
64982;SDS011;69426;28.138;-15.436;2023-09-12T01:58:09;3.95;;;1.90;;
64982;SDS011;69426;28.138;-15.436;2023-09-12T02:00:35;6.65;;;2.08;;
64982;SDS011;69426;28.138;-15.436;2023-09-12T02:03:01;3.60;;;1.90;;
64982;SDS011;69426;28.138;-15.436;2023-09-12T02:05:26;3.17;;;1.92;;
64982;SDS011;69426;28.138;-15.436;2023-09-12T02:07:51;4.33;;;1.97;;
64982;SDS011;69426;28.138;-15.436;2023-09-12T02:10:17;5.53;;;2.17;;
64982;SDS011;69426;28.138;-15.436;2023-09-12T02:12:42;6.18;;;2.40;;
64982;SDS011;69426;28.138;-15.436;2023-09-12T02:15:08;4.77;;;2.40;;
64982;SDS011;69426;28.138;-15.436;2023-09-12T02:17:33;3.47;;;2.35;;
64982;SDS011;69426;28.138;-15.436;2023-09-12T02:19:58;5.00;;;2.30;;
64982;SDS011;69426;28.138;-15.436;2023-09-12T02:22:24;7.03;;;2.60;;
64982;SDS011;69426;28.138;-15.436;2023-09-12T02:24:49;3.43;;;2.10;;
64982;SDS011;69426;28.138;-15.436;2023-09-12T02:27:14;8.30;;;2.40;;
64982;SDS011;69426;28.138;-15.436;2023-09-12T02:29:40;7.07;;;2.20;;
64982;SDS011;69426;28.138;-15.436;2023-09-12T02:32:05;4.78;;;2.40;;
64982;SDS011;69426;28.138;-15.436;2023-09-12T02:34:31;3.97;;;2.10;;
64982;SDS011;69426;28.138;-15.436;2023-09-12T02:36:56;6.23;;;2.80;;
64982;SDS011;69426;28.138;-15.436;2023-09-12T02:39:21;8.60;;;2.17;;
64982;SDS011;69426;28.138;-15.436;2023-09-12T02:41:46;5.07;;;2.40;;
64982;SDS011;69426;28.138;-15.436;2023-09-12T02:44:11;5.07;;;2.23;;
64982;SDS011;69426;28.138;-15.436;2023-09-12T02:46:37;4.00;;;2.30;;
64982;SDS011;69426;28.138;-15.436;2023-09-12T02:49:02;6.65;;;2.30;;
64982;SDS011;69426;28.138;-15.436;2023-09-12T02:51:28;5.47;;;2.13;;
64982;SDS011;69426;28.138;-15.436;2023-09-12T02:53:53;6.80;;;2.63;;
64982;SDS011;69426;28.138;-15.436;2023-09-12T02:56:18;4.27;;;2.70;;
64982;SDS011;69426;28.138;-15.436;2023-09-12T02:58:47;5.70;;;2.50;;
64982;SDS011;69426;28.138;-15.436;2023-09-12T03:01:15;4.57;;;2.55;;
64982;SDS011;69426;28.138;-15.436;2023-09-12T03:03:41;4.93;;;2.40;;
64982;SDS011;69426;28.138;-15.436;2023-09-12T03:06:06;4.63;;;2.50;;
64982;SDS011;69426;28.138;-15.436;2023-09-12T03:08:31;3.97;;;2.40;;
64982;SDS011;69426;28.138;-15.436;2023-09-12T03:10:57;4.23;;;2.67;;
64982;SDS011;69426;28.138;-15.436;2023-09-12T03:13:23;4.88;;;2.35;;
64982;SDS011;69426;28.138;-15.436;2023-09-12T03:15:49;3.50;;;2.38;;
64982;SDS011;69426;28.138;-15.436;2023-09-12T03:18:14;4.03;;;2.30;;
64982;SDS011;69426;28.138;-15.436;2023-09-12T03:20:39;5.20;;;2.40;;
64982;SDS011;69426;28.138;-15.436;2023-09-12T03:23:04;4.60;;;2.30;;
64982;SDS011;69426;28.138;-15.436;2023-09-12T03:25:30;4.60;;;2.57;;
64982;SDS011;69426;28.138;-15.436;2023-09-12T03:27:55;2.97;;;2.00;;
64982;SDS011;69426;28.138;-15.436;2023-09-12T03:30:20;4.10;;;2.37;;
64982;SDS011;69426;28.138;-15.436;2023-09-12T03:32:46;8.35;;;2.45;;
64982;SDS011;69426;28.138;-15.436;2023-09-12T03:35:11;6.60;;;2.53;;
64982;SDS011;69426;28.138;-15.436;2023-09-12T03:37:36;4.83;;;2.67;;
64982;SDS011;69426;28.138;-15.436;2023-09-12T03:40:06;5.85;;;2.72;;
64982;SDS011;69426;28.138;-15.436;2023-09-12T03:42:31;4.90;;;2.38;;
64982;SDS011;69426;28.138;-15.436;2023-09-12T03:44:57;5.17;;;2.30;;
64982;SDS011;69426;28.138;-15.436;2023-09-12T03:47:22;7.37;;;2.47;;
64982;SDS011;69426;28.138;-15.436;2023-09-12T03:49:47;7.17;;;2.43;;
64982;SDS011;69426;28.138;-15.436;2023-09-12T03:52:12;4.63;;;2.40;;
64982;SDS011;69426;28.138;-15.436;2023-09-12T03:54:38;4.40;;;2.70;;
64982;SDS011;69426;28.138;-15.436;2023-09-12T03:57:03;4.73;;;2.80;;
64982;SDS011;69426;28.138;-15.436;2023-09-12T03:59:28;5.13;;;2.55;;
64982;SDS011;69426;28.138;-15.436;2023-09-12T04:01:53;6.07;;;2.17;;
64982;SDS011;69426;28.138;-15.436;2023-09-12T04:04:19;6.87;;;2.50;;
64982;SDS011;69426;28.138;-15.436;2023-09-12T04:06:44;5.57;;;2.00;;
64982;SDS011;69426;28.138;-15.436;2023-09-12T04:09:09;6.00;;;2.50;;
64982;SDS011;69426;28.138;-15.436;2023-09-12T04:11:34;4.37;;;2.30;;
64982;SDS011;69426;28.138;-15.436;2023-09-12T04:13:59;7.10;;;2.20;;
64982;SDS011;69426;28.138;-15.436;2023-09-12T04:16:25;5.47;;;2.57;;
64982;SDS011;69426;28.138;-15.436;2023-09-12T04:18:50;10.40;;;2.50;;
64982;SDS011;69426;28.138;-15.436;2023-09-12T04:21:15;5.53;;;2.33;;
64982;SDS011;69426;28.138;-15.436;2023-09-12T04:23:40;4.50;;;2.67;;
64982;SDS011;69426;28.138;-15.436;2023-09-12T04:26:06;6.27;;;2.30;;
64982;SDS011;69426;28.138;-15.436;2023-09-12T04:28:31;5.90;;;2.47;;
64982;SDS011;69426;28.138;-15.436;2023-09-12T04:31:05;3.13;;;2.17;;
64982;SDS011;69426;28.138;-15.436;2023-09-12T04:33:30;5.20;;;2.63;;
64982;SDS011;69426;28.138;-15.436;2023-09-12T04:36:00;5.43;;;2.00;;
64982;SDS011;69426;28.138;-15.436;2023-09-12T04:38:26;7.18;;;3.03;;
64982;SDS011;69426;28.138;-15.436;2023-09-12T04:40:55;7.43;;;3.22;;
64982;SDS011;69426;28.138;-15.436;2023-09-12T04:43:20;10.88;;;2.70;;
64982;SDS011;69426;28.138;-15.436;2023-09-12T04:45:46;9.47;;;2.73;;
64982;SDS011;69426;28.138;-15.436;2023-09-12T04:48:11;8.10;;;2.70;;
64982;SDS011;69426;28.138;-15.436;2023-09-12T04:50:42;6.07;;;2.20;;
64982;SDS011;69426;28.138;-15.436;2023-09-12T04:53:07;7.97;;;2.75;;
64982;SDS011;69426;28.138;-15.436;2023-09-12T04:55:34;6.68;;;2.70;;
64982;SDS011;69426;28.138;-15.436;2023-09-12T04:58:00;20.73;;;3.17;;
64982;SDS011;69426;28.138;-15.436;2023-09-12T05:00:25;9.55;;;2.35;;
64982;SDS011;69426;28.138;-15.436;2023-09-12T05:02:50;9.53;;;2.80;;
64982;SDS011;69426;28.138;-15.436;2023-09-12T05:05:16;7.53;;;2.53;;
64982;SDS011;69426;28.138;-15.436;2023-09-12T05:07:41;10.60;;;2.30;;
64982;SDS011;69426;28.138;-15.436;2023-09-12T05:10:06;6.73;;;2.17;;
64982;SDS011;69426;28.138;-15.436;2023-09-12T05:12:31;5.68;;;2.85;;
64982;SDS011;69426;28.138;-15.436;2023-09-12T05:14:57;5.45;;;2.55;;
64982;SDS011;69426;28.138;-15.436;2023-09-12T05:17:22;7.07;;;2.67;;
64982;SDS011;69426;28.138;-15.436;2023-09-12T05:19:47;9.93;;;2.37;;
64982;SDS011;69426;28.138;-15.436;2023-09-12T05:22:13;10.13;;;2.90;;
64982;SDS011;69426;28.138;-15.436;2023-09-12T05:24:38;10.20;;;3.33;;
64982;SDS011;69426;28.138;-15.436;2023-09-12T05:27:03;6.32;;;2.58;;
64982;SDS011;69426;28.138;-15.436;2023-09-12T05:29:30;9.82;;;3.25;;
64982;SDS011;69426;28.138;-15.436;2023-09-12T05:31:55;13.70;;;2.50;;
64982;SDS011;69426;28.138;-15.436;2023-09-12T05:34:20;10.23;;;2.50;;
64982;SDS011;69426;28.138;-15.436;2023-09-12T05:36:46;13.23;;;2.90;;
64982;SDS011;69426;28.138;-15.436;2023-09-12T05:39:11;8.47;;;2.70;;
64982;SDS011;69426;28.138;-15.436;2023-09-12T05:41:38;10.02;;;2.40;;
64982;SDS011;69426;28.138;-15.436;2023-09-12T05:44:04;8.73;;;2.90;;
64982;SDS011;69426;28.138;-15.436;2023-09-12T05:46:29;5.38;;;2.53;;
64982;SDS011;69426;28.138;-15.436;2023-09-12T05:48:54;5.90;;;2.33;;
64982;SDS011;69426;28.138;-15.436;2023-09-12T05:51:19;8.27;;;3.20;;
64982;SDS011;69426;28.138;-15.436;2023-09-12T05:53:45;9.60;;;2.60;;
64982;SDS011;69426;28.138;-15.436;2023-09-12T05:56:10;8.60;;;2.30;;
64982;SDS011;69426;28.138;-15.436;2023-09-12T05:58:35;9.57;;;2.60;;
64982;SDS011;69426;28.138;-15.436;2023-09-12T06:01:01;5.10;;;2.50;;
64982;SDS011;69426;28.138;-15.436;2023-09-12T06:03:26;8.93;;;3.10;;
64982;SDS011;69426;28.138;-15.436;2023-09-12T06:05:51;6.73;;;2.93;;
64982;SDS011;69426;28.138;-15.436;2023-09-12T06:08:16;8.67;;;3.00;;
64982;SDS011;69426;28.138;-15.436;2023-09-12T06:10:42;10.82;;;3.53;;
64982;SDS011;69426;28.138;-15.436;2023-09-12T06:13:07;6.90;;;3.07;;
64982;SDS011;69426;28.138;-15.436;2023-09-12T06:15:33;11.60;;;3.53;;
64982;SDS011;69426;28.138;-15.436;2023-09-12T06:17:58;6.37;;;3.00;;
64982;SDS011;69426;28.138;-15.436;2023-09-12T06:20:23;12.77;;;2.77;;
64982;SDS011;69426;28.138;-15.436;2023-09-12T06:22:48;8.00;;;3.17;;
64982;SDS011;69426;28.138;-15.436;2023-09-12T06:25:14;9.48;;;3.15;;
64982;SDS011;69426;28.138;-15.436;2023-09-12T06:27:39;14.27;;;2.55;;
64982;SDS011;69426;28.138;-15.436;2023-09-12T06:30:05;7.57;;;2.83;;
64982;SDS011;69426;28.138;-15.436;2023-09-12T06:32:30;12.10;;;3.03;;
64982;SDS011;69426;28.138;-15.436;2023-09-12T06:34:55;7.43;;;2.50;;
64982;SDS011;69426;28.138;-15.436;2023-09-12T06:37:21;8.77;;;2.20;;
64982;SDS011;69426;28.138;-15.436;2023-09-12T06:39:48;7.00;;;2.40;;
64982;SDS011;69426;28.138;-15.436;2023-09-12T06:42:14;6.00;;;2.03;;
64982;SDS011;69426;28.138;-15.436;2023-09-12T06:44:39;8.60;;;2.70;;
64982;SDS011;69426;28.138;-15.436;2023-09-12T06:47:04;10.33;;;2.50;;
64982;SDS011;69426;28.138;-15.436;2023-09-12T06:49:30;6.57;;;2.40;;
64982;SDS011;69426;28.138;-15.436;2023-09-12T06:51:57;4.60;;;2.40;;
64982;SDS011;69426;28.138;-15.436;2023-09-12T06:54:22;5.50;;;2.07;;
64982;SDS011;69426;28.138;-15.436;2023-09-12T06:56:47;4.67;;;2.10;;
64982;SDS011;69426;28.138;-15.436;2023-09-12T06:59:13;7.97;;;2.25;;
64982;SDS011;69426;28.138;-15.436;2023-09-12T07:01:38;10.87;;;2.90;;
64982;SDS011;69426;28.138;-15.436;2023-09-12T07:04:04;7.80;;;2.40;;
64982;SDS011;69426;28.138;-15.436;2023-09-12T07:06:29;4.55;;;1.95;;
64982;SDS011;69426;28.138;-15.436;2023-09-12T07:08:54;3.22;;;1.80;;
64982;SDS011;69426;28.138;-15.436;2023-09-12T07:11:19;6.40;;;2.30;;
64982;SDS011;69426;28.138;-15.436;2023-09-12T07:13:45;6.50;;;2.40;;
64982;SDS011;69426;28.138;-15.436;2023-09-12T07:16:10;6.78;;;2.00;;
64982;SDS011;69426;28.138;-15.436;2023-09-12T07:18:35;6.33;;;2.20;;
64982;SDS011;69426;28.138;-15.436;2023-09-12T07:21:02;5.97;;;1.90;;
64982;SDS011;69426;28.138;-15.436;2023-09-12T07:23:28;4.28;;;2.20;;
64982;SDS011;69426;28.138;-15.436;2023-09-12T07:25:53;3.75;;;2.50;;
64982;SDS011;69426;28.138;-15.436;2023-09-12T07:28:20;4.07;;;2.40;;
64982;SDS011;69426;28.138;-15.436;2023-09-12T07:30:46;6.88;;;2.25;;
64982;SDS011;69426;28.138;-15.436;2023-09-12T07:33:11;7.57;;;2.53;;
64982;SDS011;69426;28.138;-15.436;2023-09-12T07:35:36;11.43;;;2.40;;
64982;SDS011;69426;28.138;-15.436;2023-09-12T07:38:02;5.37;;;2.10;;
64982;SDS011;69426;28.138;-15.436;2023-09-12T07:40:28;8.10;;;2.20;;
64982;SDS011;69426;28.138;-15.436;2023-09-12T07:42:54;8.00;;;2.60;;
64982;SDS011;69426;28.138;-15.436;2023-09-12T07:45:19;13.20;;;3.00;;
64982;SDS011;69426;28.138;-15.436;2023-09-12T07:47:45;9.52;;;2.67;;
64982;SDS011;69426;28.138;-15.436;2023-09-12T07:50:10;8.35;;;2.60;;
64982;SDS011;69426;28.138;-15.436;2023-09-12T07:52:35;6.87;;;3.00;;
64982;SDS011;69426;28.138;-15.436;2023-09-12T07:55:01;7.93;;;2.60;;
64982;SDS011;69426;28.138;-15.436;2023-09-12T07:57:27;7.53;;;2.60;;
64982;SDS011;69426;28.138;-15.436;2023-09-12T07:59:53;5.30;;;2.65;;
64982;SDS011;69426;28.138;-15.436;2023-09-12T08:02:18;5.95;;;2.58;;
64982;SDS011;69426;28.138;-15.436;2023-09-12T08:04:43;5.77;;;2.90;;
64982;SDS011;69426;28.138;-15.436;2023-09-12T08:07:08;10.27;;;4.20;;
64982;SDS011;69426;28.138;-15.436;2023-09-12T08:12:14;15.65;;;6.07;;
64982;SDS011;69426;28.138;-15.436;2023-09-12T08:14:39;16.27;;;5.33;;
64982;SDS011;69426;28.138;-15.436;2023-09-12T08:17:04;14.37;;;5.10;;
64982;SDS011;69426;28.138;-15.436;2023-09-12T08:19:30;13.80;;;4.93;;
64982;SDS011;69426;28.138;-15.436;2023-09-12T08:21:55;13.87;;;4.20;;
64982;SDS011;69426;28.138;-15.436;2023-09-12T08:24:20;10.07;;;4.23;;
64982;SDS011;69426;28.138;-15.436;2023-09-12T08:26:45;10.63;;;4.00;;
64982;SDS011;69426;28.138;-15.436;2023-09-12T08:29:11;9.07;;;3.90;;
64982;SDS011;69426;28.138;-15.436;2023-09-12T08:31:36;9.60;;;4.17;;
64982;SDS011;69426;28.138;-15.436;2023-09-12T08:34:01;13.70;;;4.03;;
64982;SDS011;69426;28.138;-15.436;2023-09-12T08:36:26;11.77;;;3.80;;
64982;SDS011;69426;28.138;-15.436;2023-09-12T08:38:51;10.27;;;3.47;;
64982;SDS011;69426;28.138;-15.436;2023-09-12T08:41:17;9.73;;;3.73;;
64982;SDS011;69426;28.138;-15.436;2023-09-12T08:43:42;11.23;;;3.33;;
64982;SDS011;69426;28.138;-15.436;2023-09-12T08:46:08;8.70;;;3.75;;
64982;SDS011;69426;28.138;-15.436;2023-09-12T08:48:34;12.32;;;3.53;;
64982;SDS011;69426;28.138;-15.436;2023-09-12T08:51:01;7.35;;;3.05;;
64982;SDS011;69426;28.138;-15.436;2023-09-12T08:53:28;10.38;;;3.13;;
64982;SDS011;69426;28.138;-15.436;2023-09-12T08:55:53;6.13;;;3.00;;
64982;SDS011;69426;28.138;-15.436;2023-09-12T08:58:19;9.27;;;2.90;;
64982;SDS011;69426;28.138;-15.436;2023-09-12T09:00:45;10.23;;;2.53;;
64982;SDS011;69426;28.138;-15.436;2023-09-12T09:03:11;8.75;;;3.38;;
64982;SDS011;69426;28.138;-15.436;2023-09-12T09:05:36;8.68;;;3.00;;
64982;SDS011;69426;28.138;-15.436;2023-09-12T09:08:02;8.00;;;2.88;;
64982;SDS011;69426;28.138;-15.436;2023-09-12T09:10:28;4.78;;;2.80;;
64982;SDS011;69426;28.138;-15.436;2023-09-12T09:12:57;4.63;;;2.72;;
64982;SDS011;69426;28.138;-15.436;2023-09-12T09:15:31;5.63;;;2.70;;
64982;SDS011;69426;28.138;-15.436;2023-09-12T09:17:57;7.05;;;3.00;;
64982;SDS011;69426;28.138;-15.436;2023-09-12T09:20:29;6.72;;;2.63;;
64982;SDS011;69426;28.138;-15.436;2023-09-12T09:22:58;3.95;;;2.50;;
64982;SDS011;69426;28.138;-15.436;2023-09-12T09:25:24;8.75;;;2.83;;
64982;SDS011;69426;28.138;-15.436;2023-09-12T09:27:49;6.50;;;2.70;;
64982;SDS011;69426;28.138;-15.436;2023-09-12T09:30:15;6.17;;;2.80;;
64982;SDS011;69426;28.138;-15.436;2023-09-12T09:32:40;11.97;;;2.70;;
64982;SDS011;69426;28.138;-15.436;2023-09-12T09:35:06;9.23;;;2.70;;
64982;SDS011;69426;28.138;-15.436;2023-09-12T09:37:31;8.50;;;3.05;;
64982;SDS011;69426;28.138;-15.436;2023-09-12T09:39:56;5.72;;;2.63;;
64982;SDS011;69426;28.138;-15.436;2023-09-12T09:42:23;4.65;;;2.92;;
64982;SDS011;69426;28.138;-15.436;2023-09-12T09:44:48;6.70;;;2.60;;
64982;SDS011;69426;28.138;-15.436;2023-09-12T09:47:14;6.75;;;2.50;;
64982;SDS011;69426;28.138;-15.436;2023-09-12T09:49:39;6.60;;;2.57;;
64982;SDS011;69426;28.138;-15.436;2023-09-12T09:52:05;7.45;;;2.75;;
64982;SDS011;69426;28.138;-15.436;2023-09-12T09:54:31;8.25;;;3.13;;
64982;SDS011;69426;28.138;-15.436;2023-09-12T09:56:56;5.03;;;2.73;;
64982;SDS011;69426;28.138;-15.436;2023-09-12T09:59:23;8.55;;;3.10;;
64982;SDS011;69426;28.138;-15.436;2023-09-12T10:01:49;6.32;;;3.17;;
64982;SDS011;69426;28.138;-15.436;2023-09-12T10:04:14;7.70;;;2.80;;
64982;SDS011;69426;28.138;-15.436;2023-09-12T10:06:40;4.97;;;2.70;;
64982;SDS011;69426;28.138;-15.436;2023-09-12T10:09:09;9.50;;;3.25;;
64982;SDS011;69426;28.138;-15.436;2023-09-12T10:11:35;9.38;;;2.38;;
64982;SDS011;69426;28.138;-15.436;2023-09-12T10:14:05;10.18;;;3.05;;
64982;SDS011;69426;28.138;-15.436;2023-09-12T10:19:04;6.43;;;3.07;;
64982;SDS011;69426;28.138;-15.436;2023-09-12T10:21:32;9.70;;;3.53;;
64982;SDS011;69426;28.138;-15.436;2023-09-12T10:23:59;6.93;;;3.03;;
64982;SDS011;69426;28.138;-15.436;2023-09-12T10:26:25;9.23;;;2.75;;
64982;SDS011;69426;28.138;-15.436;2023-09-12T10:28:51;9.52;;;3.00;;
64982;SDS011;69426;28.138;-15.436;2023-09-12T10:31:17;8.10;;;3.10;;
64982;SDS011;69426;28.138;-15.436;2023-09-12T10:33:42;6.28;;;3.00;;
64982;SDS011;69426;28.138;-15.436;2023-09-12T10:36:09;9.00;;;3.38;;
64982;SDS011;69426;28.138;-15.436;2023-09-12T10:38:38;6.82;;;2.88;;
64982;SDS011;69426;28.138;-15.436;2023-09-12T10:41:05;7.35;;;3.13;;
64982;SDS011;69426;28.138;-15.436;2023-09-12T10:43:34;10.18;;;2.95;;
64982;SDS011;69426;28.138;-15.436;2023-09-12T10:46:00;6.18;;;3.10;;
64982;SDS011;69426;28.138;-15.436;2023-09-12T10:48:27;6.35;;;3.00;;
64982;SDS011;69426;28.138;-15.436;2023-09-12T10:50:53;7.45;;;2.80;;
64982;SDS011;69426;28.138;-15.436;2023-09-12T10:53:20;8.55;;;2.90;;
64982;SDS011;69426;28.138;-15.436;2023-09-12T11:01:38;7.00;;;3.33;;
64982;SDS011;69426;28.138;-15.436;2023-09-12T11:06:44;8.70;;;2.90;;
64982;SDS011;69426;28.138;-15.436;2023-09-12T11:11:41;4.60;;;2.85;;
64982;SDS011;69426;28.138;-15.436;2023-09-12T11:14:07;5.57;;;3.10;;
64982;SDS011;69426;28.138;-15.436;2023-09-12T11:16:33;6.78;;;3.08;;
64982;SDS011;69426;28.138;-15.436;2023-09-12T11:21:44;9.10;;;3.65;;
64982;SDS011;69426;28.138;-15.436;2023-09-12T11:24:09;10.45;;;3.30;;
64982;SDS011;69426;28.138;-15.436;2023-09-12T11:26:34;10.15;;;3.20;;
64982;SDS011;69426;28.138;-15.436;2023-09-12T11:29:12;5.77;;;3.17;;
64982;SDS011;69426;28.138;-15.436;2023-09-12T11:31:38;11.82;;;3.60;;
64982;SDS011;69426;28.138;-15.436;2023-09-12T11:34:08;8.82;;;3.20;;
64982;SDS011;69426;28.138;-15.436;2023-09-12T11:36:37;6.43;;;3.17;;
64982;SDS011;69426;28.138;-15.436;2023-09-12T11:39:03;9.40;;;3.40;;
64982;SDS011;69426;28.138;-15.436;2023-09-12T11:41:46;6.88;;;3.10;;
64982;SDS011;69426;28.138;-15.436;2023-09-12T11:44:11;7.13;;;2.90;;
64982;SDS011;69426;28.138;-15.436;2023-09-12T11:46:37;5.13;;;2.58;;
64982;SDS011;69426;28.138;-15.436;2023-09-12T11:49:03;6.45;;;2.80;;
64982;SDS011;69426;28.138;-15.436;2023-09-12T11:51:28;7.25;;;2.83;;
64982;SDS011;69426;28.138;-15.436;2023-09-12T11:53:54;5.53;;;2.65;;
64982;SDS011;69426;28.138;-15.436;2023-09-12T11:56:21;6.57;;;2.65;;
64982;SDS011;69426;28.138;-15.436;2023-09-12T11:58:47;5.28;;;2.58;;
64982;SDS011;69426;28.138;-15.436;2023-09-12T12:01:14;5.93;;;2.50;;
64982;SDS011;69426;28.138;-15.436;2023-09-12T12:03:39;6.63;;;2.73;;
64982;SDS011;69426;28.138;-15.436;2023-09-12T12:06:04;3.90;;;2.27;;
64982;SDS011;69426;28.138;-15.436;2023-09-12T12:08:30;3.70;;;2.15;;
64982;SDS011;69426;28.138;-15.436;2023-09-12T12:10:56;7.88;;;2.17;;
64982;SDS011;69426;28.138;-15.436;2023-09-12T12:13:23;4.97;;;2.20;;
64982;SDS011;69426;28.138;-15.436;2023-09-12T12:15:48;8.80;;;2.83;;
64982;SDS011;69426;28.138;-15.436;2023-09-12T12:18:14;4.70;;;2.47;;
64982;SDS011;69426;28.138;-15.436;2023-09-12T12:20:39;8.43;;;2.35;;
64982;SDS011;69426;28.138;-15.436;2023-09-12T12:23:04;5.33;;;2.30;;
64982;SDS011;69426;28.138;-15.436;2023-09-12T12:25:33;4.10;;;2.53;;
64982;SDS011;69426;28.138;-15.436;2023-09-12T12:27:59;7.93;;;2.30;;
64982;SDS011;69426;28.138;-15.436;2023-09-12T12:30:24;6.25;;;2.20;;
64982;SDS011;69426;28.138;-15.436;2023-09-12T12:32:49;3.13;;;2.10;;
64982;SDS011;69426;28.138;-15.436;2023-09-12T12:35:21;8.63;;;2.33;;
64982;SDS011;69426;28.138;-15.436;2023-09-12T12:37:51;4.20;;;2.20;;
64982;SDS011;69426;28.138;-15.436;2023-09-12T12:40:16;4.43;;;2.20;;
64982;SDS011;69426;28.138;-15.436;2023-09-12T12:42:42;4.72;;;2.00;;
64982;SDS011;69426;28.138;-15.436;2023-09-12T12:45:11;3.05;;;2.00;;
64982;SDS011;69426;28.138;-15.436;2023-09-12T12:47:36;6.63;;;2.30;;
64982;SDS011;69426;28.138;-15.436;2023-09-12T12:50:02;3.57;;;2.00;;
64982;SDS011;69426;28.138;-15.436;2023-09-12T12:52:32;4.05;;;2.15;;
64982;SDS011;69426;28.138;-15.436;2023-09-12T12:55:05;6.97;;;2.58;;
64982;SDS011;69426;28.138;-15.436;2023-09-12T12:57:30;3.97;;;1.95;;
64982;SDS011;69426;28.138;-15.436;2023-09-12T12:59:56;3.90;;;2.23;;
64982;SDS011;69426;28.138;-15.436;2023-09-12T13:02:22;4.97;;;2.03;;
64982;SDS011;69426;28.138;-15.436;2023-09-12T13:04:47;3.50;;;2.30;;
64982;SDS011;69426;28.138;-15.436;2023-09-12T13:07:12;3.10;;;2.20;;
64982;SDS011;69426;28.138;-15.436;2023-09-12T13:09:38;3.60;;;2.30;;
64982;SDS011;69426;28.138;-15.436;2023-09-12T13:12:03;5.43;;;2.13;;
64982;SDS011;69426;28.138;-15.436;2023-09-12T13:14:29;6.38;;;2.38;;
64982;SDS011;69426;28.138;-15.436;2023-09-12T13:16:58;8.98;;;2.88;;
64982;SDS011;69426;28.138;-15.436;2023-09-12T13:19:24;13.73;;;3.00;;
64982;SDS011;69426;28.138;-15.436;2023-09-12T13:21:50;8.07;;;3.72;;
64982;SDS011;69426;28.138;-15.436;2023-09-12T13:24:15;8.07;;;4.03;;
64982;SDS011;69426;28.138;-15.436;2023-09-12T13:26:40;8.70;;;4.30;;
64982;SDS011;69426;28.138;-15.436;2023-09-12T13:29:05;8.70;;;4.30;;
64982;SDS011;69426;28.138;-15.436;2023-09-12T13:31:31;10.13;;;4.37;;
64982;SDS011;69426;28.138;-15.436;2023-09-12T13:33:56;14.23;;;4.43;;
64982;SDS011;69426;28.138;-15.436;2023-09-12T13:36:22;12.67;;;4.87;;
64982;SDS011;69426;28.138;-15.436;2023-09-12T13:38:48;10.00;;;4.70;;
64982;SDS011;69426;28.138;-15.436;2023-09-12T13:41:16;10.73;;;4.40;;
64982;SDS011;69426;28.138;-15.436;2023-09-12T13:43:41;8.30;;;4.30;;
64982;SDS011;69426;28.138;-15.436;2023-09-12T13:46:06;8.77;;;4.40;;
64982;SDS011;69426;28.138;-15.436;2023-09-12T13:48:34;8.82;;;4.38;;
64982;SDS011;69426;28.138;-15.436;2023-09-12T13:50:59;13.83;;;4.77;;
64982;SDS011;69426;28.138;-15.436;2023-09-12T13:53:25;7.20;;;4.13;;
64982;SDS011;69426;28.138;-15.436;2023-09-12T13:55:50;9.03;;;4.90;;
64982;SDS011;69426;28.138;-15.436;2023-09-12T13:58:15;9.50;;;4.67;;
64982;SDS011;69426;28.138;-15.436;2023-09-12T14:00:40;10.97;;;5.13;;
64982;SDS011;69426;28.138;-15.436;2023-09-12T14:03:06;14.60;;;4.80;;
64982;SDS011;69426;28.138;-15.436;2023-09-12T14:05:31;11.20;;;5.17;;
64982;SDS011;69426;28.138;-15.436;2023-09-12T14:07:56;12.07;;;4.90;;
64982;SDS011;69426;28.138;-15.436;2023-09-12T14:10:21;13.77;;;5.00;;
64982;SDS011;69426;28.138;-15.436;2023-09-12T14:12:47;9.63;;;5.17;;
64982;SDS011;69426;28.138;-15.436;2023-09-12T14:15:12;11.33;;;5.53;;
64982;SDS011;69426;28.138;-15.436;2023-09-12T14:17:39;12.20;;;5.05;;
64982;SDS011;69426;28.138;-15.436;2023-09-12T14:20:04;10.30;;;5.03;;
64982;SDS011;69426;28.138;-15.436;2023-09-12T14:22:30;12.85;;;5.07;;
64982;SDS011;69426;28.138;-15.436;2023-09-12T14:24:55;11.23;;;5.17;;
64982;SDS011;69426;28.138;-15.436;2023-09-12T14:27:20;10.40;;;4.88;;
64982;SDS011;69426;28.138;-15.436;2023-09-12T14:29:45;10.63;;;4.80;;
64982;SDS011;69426;28.138;-15.436;2023-09-12T14:32:13;10.90;;;5.47;;
64982;SDS011;69426;28.138;-15.436;2023-09-12T14:34:39;15.53;;;5.90;;
64982;SDS011;69426;28.138;-15.436;2023-09-12T14:37:04;9.17;;;5.10;;